Time;durP1;ratioP1;P1;durP2;ratioP2;P2;SDS_P1;SDS_P2;PMS_P1;PMS_P2;Temp;Humidity;BMP_temperature;BMP_pressure;BME280_temperature;BME280_humidity;BME280_pressure;Samples;Min_cycle;Max_cycle;Signal;HPM_P1;HPM_P2
2021/05/26 00:00:59;;;;;;;6.70;4.40;;;11.10;79.20;;;;;;5034460;28;20421;-90
2021/05/26 00:03:25;;;;;;;9.68;5.78;;;11.10;79.20;;;;;;5016490;28;20037;-91
2021/05/26 00:05:50;;;;;;;8.90;5.32;;;11.10;79.20;;;;;;5034195;28;20140;-92
2021/05/26 00:08:30;;;;;;;6.38;4.25;;;11.10;79.30;;;;;;5033996;28;20048;-93
2021/05/26 00:10:59;;;;;;;6.25;4.30;;;11.10;79.30;;;;;;5033740;28;20032;-93
2021/05/26 00:13:26;;;;;;;6.57;4.40;;;11.10;79.30;;;;;;5033967;28;20635;-93
2021/05/26 00:15:53;;;;;;;4.65;3.20;;;11.10;79.10;;;;;;5033681;28;20074;-94
2021/05/26 00:18:19;;;;;;;7.18;3.63;;;11.10;79.00;;;;;;5032478;28;20603;-93
2021/05/26 00:20:46;;;;;;;5.22;3.00;;;11.10;78.90;;;;;;5033324;28;20031;-93
2021/05/26 00:23:12;;;;;;;4.68;2.95;;;11.20;78.70;;;;;;5033561;28;20040;-90
2021/05/26 00:25:52;;;;;;;4.18;2.88;;;11.20;78.60;;;;;;5033670;28;20018;-93
2021/05/26 00:28:18;;;;;;;4.13;2.72;;;11.20;78.60;;;;;;5033302;28;20108;-93
2021/05/26 00:30:52;;;;;;;4.47;3.00;;;11.20;78.50;;;;;;5015825;28;20424;-92
2021/05/26 00:33:19;;;;;;;4.57;2.55;;;11.20;78.40;;;;;;5033773;28;20022;-93
2021/05/26 00:35:45;;;;;;;5.63;3.17;;;11.20;78.20;;;;;;5033341;28;20034;-93
2021/05/26 00:38:11;;;;;;;4.53;2.97;;;11.20;78.20;;;;;;5015434;28;20144;-93
2021/05/26 00:40:37;;;;;;;4.93;2.47;;;11.20;78.00;;;;;;5033435;28;20033;-94
2021/05/26 00:43:03;;;;;;;3.05;2.00;;;11.10;77.60;;;;;;5033513;28;20022;-93
2021/05/26 00:45:29;;;;;;;3.28;1.88;;;11.10;77.40;;;;;;5033124;28;20013;-93
2021/05/26 00:47:54;;;;;;;3.92;2.20;;;11.10;78.00;;;;;;5033144;28;20017;-93
2021/05/26 00:50:33;;;;;;;2.75;1.60;;;11.10;77.20;;;;;;5015836;28;20388;-93
2021/05/26 00:53:05;;;;;;;2.88;1.50;;;11.00;77.10;;;;;;5031454;28;20085;-93
2021/05/26 00:55:31;;;;;;;4.90;1.90;;;11.00;77.10;;;;;;5031845;28;20083;-94
2021/05/26 00:57:59;;;;;;;2.33;1.50;;;10.90;76.90;;;;;;5014252;28;20319;-94
2021/05/26 01:00:26;;;;;;;1.60;1.23;;;10.80;76.90;;;;;;5033194;28;20049;-94
2021/05/26 01:02:52;;;;;;;1.60;1.30;;;10.80;76.90;;;;;;5015111;28;20526;-93
2021/05/26 01:05:21;;;;;;;2.15;1.10;;;10.80;77.00;;;;;;5033250;28;20027;-94
2021/05/26 01:07:47;;;;;;;1.50;1.00;;;10.80;77.00;;;;;;5029265;28;20025;-93
2021/05/26 01:10:18;;;;;;;3.97;1.45;;;10.80;77.00;;;;;;5015216;28;20049;-94
2021/05/26 01:12:44;;;;;;;2.50;1.50;;;10.70;77.10;;;;;;5032363;28;20037;-95
2021/05/26 01:15:12;;;;;;;1.90;1.20;;;10.70;77.30;;;;;;5026231;28;20064;-95
2021/05/26 01:17:38;;;;;;;1.67;1.20;;;10.70;77.40;;;;;;5030032;28;20028;-93
2021/05/26 01:20:06;;;;;;;2.55;1.27;;;10.70;77.40;;;;;;5032017;28;20041;-88
2021/05/26 01:22:32;;;;;;;1.77;0.95;;;10.70;77.50;;;;;;5010053;28;20034;-90
2021/05/26 01:24:57;;;;;;;1.52;1.08;;;10.70;77.40;;;;;;5023285;28;20450;-91
2021/05/26 01:27:24;;;;;;;1.70;1.30;;;10.70;77.50;;;;;;5031356;28;20045;-89
2021/05/26 01:29:50;;;;;;;1.30;0.93;;;10.70;77.70;;;;;;5031241;28;20113;-89
2021/05/26 01:32:16;;;;;;;1.45;1.20;;;10.70;77.80;;;;;;5004436;28;20105;-88
2021/05/26 01:34:41;;;;;;;1.70;1.20;;;10.70;77.90;;;;;;5030855;28;20053;-89
2021/05/26 01:37:08;;;;;;;1.50;1.00;;;10.70;77.80;;;;;;5029605;28;20554;-89
2021/05/26 01:39:34;;;;;;;1.20;1.10;;;10.70;77.90;;;;;;5012704;28;20025;-89
2021/05/26 01:41:59;;;;;;;1.20;1.00;;;10.60;78.10;;;;;;5027120;28;20030;-88
2021/05/26 01:44:26;;;;;;;2.83;1.38;;;10.60;78.10;;;;;;5029851;28;20031;-90
2021/05/26 01:46:52;;;;;;;3.70;1.80;;;10.60;78.30;;;;;;5013991;28;20491;-90
2021/05/26 01:49:19;;;;;;;2.33;1.58;;;10.60;78.80;;;;;;5031216;28;20034;-90
2021/05/26 01:51:45;;;;;;;2.35;1.30;;;10.50;79.10;;;;;;5013111;28;20022;-90
2021/05/26 01:54:11;;;;;;;2.10;1.40;;;10.50;79.10;;;;;;5031223;28;20468;-87
2021/05/26 01:56:37;;;;;;;1.55;1.20;;;10.60;79.10;;;;;;5031296;28;20041;-89
2021/05/26 01:59:03;;;;;;;1.50;1.10;;;10.50;79.30;;;;;;5013279;28;20197;-89
2021/05/26 02:01:29;;;;;;;0.80;0.70;;;10.50;79.50;;;;;;5031886;28;20030;-90
2021/05/26 02:03:55;;;;;;;1.02;0.82;;;10.50;79.50;;;;;;5030525;28;20033;-89
2021/05/26 02:06:24;;;;;;;1.75;1.20;;;10.50;79.50;;;;;;5016480;28;20376;-89
2021/05/26 02:08:52;;;;;;;1.23;1.13;;;10.50;79.70;;;;;;5016953;28;20033;-89
2021/05/26 02:14:05;;;;;;;1.90;1.00;;;10.50;79.80;;;;;;5034887;28;20499;-89
2021/05/26 02:16:31;;;;;;;1.15;0.90;;;10.60;79.70;;;;;;5034891;28;20044;-88
2021/05/26 02:18:57;;;;;;;1.40;1.10;;;10.60;79.60;;;;;;5016800;28;20100;-89
2021/05/26 02:21:22;;;;;;;1.10;0.90;;;10.60;79.70;;;;;;5034239;28;20081;-88
2021/05/26 02:23:48;;;;;;;1.05;0.95;;;10.60;79.70;;;;;;5033952;28;20497;-88
2021/05/26 02:26:14;;;;;;;1.13;0.98;;;10.60;79.70;;;;;;5035380;28;20120;-94
2021/05/26 02:28:40;;;;;;;0.90;0.90;;;10.60;79.70;;;;;;5017726;28;20029;-89
2021/05/26 02:31:07;;;;;;;1.58;0.98;;;10.60;79.70;;;;;;5034634;28;20022;-90
2021/05/26 02:33:33;;;;;;;2.42;1.20;;;10.60;79.70;;;;;;5016868;28;20025;-89
2021/05/26 02:35:58;;;;;;;1.08;0.98;;;10.60;79.70;;;;;;5034790;28;20028;-90
2021/05/26 02:38:24;;;;;;;0.88;0.82;;;10.60;79.60;;;;;;5034643;28;20022;-88
2021/05/26 02:40:49;;;;;;;1.15;1.05;;;10.60;79.70;;;;;;5034503;28;20090;-88
2021/05/26 02:43:15;;;;;;;1.45;1.35;;;10.60;79.60;;;;;;5031721;28;20026;-90
2021/05/26 02:45:41;;;;;;;1.65;1.30;;;10.60;79.60;;;;;;5035232;28;20033;-89
2021/05/26 02:48:07;;;;;;;2.10;1.20;;;10.60;79.60;;;;;;5016463;28;20022;-90
2021/05/26 02:50:32;;;;;;;1.92;1.70;;;10.70;79.50;;;;;;5031899;28;20112;-90
2021/05/26 02:52:58;;;;;;;1.42;1.30;;;10.70;79.50;;;;;;5033996;28;20468;-90
2021/05/26 02:55:25;;;;;;;1.92;1.52;;;10.80;79.50;;;;;;5033950;28;20037;-88
2021/05/26 02:57:50;;;;;;;1.30;1.20;;;10.70;79.40;;;;;;5033471;28;20048;-86
2021/05/26 03:00:19;;;;;;;2.08;1.23;;;10.80;79.30;;;;;;5033445;28;20037;-89
2021/05/26 03:02:45;;;;;;;1.50;1.27;;;10.80;79.20;;;;;;5034284;28;20049;-88
2021/05/26 03:05:12;;;;;;;1.92;1.60;;;10.90;79.10;;;;;;5034828;28;20392;-89
2021/05/26 03:07:39;;;;;;;1.45;1.35;;;10.90;79.00;;;;;;5024908;28;20032;-88
2021/05/26 03:10:06;;;;;;;1.40;1.25;;;10.90;79.00;;;;;;5032989;28;20025;-87
2021/05/26 03:12:32;;;;;;;3.22;1.60;;;10.90;79.10;;;;;;5029345;28;20045;-86
2021/05/26 03:14:57;;;;;;;2.47;1.40;;;10.90;79.00;;;;;;5033337;28;20061;-88
2021/05/26 03:17:27;;;;;;;1.77;1.30;;;10.90;79.10;;;;;;5032732;28;20503;-87
2021/05/26 03:19:53;;;;;;;1.77;1.20;;;10.90;79.00;;;;;;5032893;28;20384;-88
2021/05/26 03:22:19;;;;;;;1.38;1.20;;;10.90;79.10;;;;;;5033339;28;20023;-86
2021/05/26 03:24:44;;;;;;;2.35;1.23;;;10.90;79.10;;;;;;5032795;28;20475;-89
2021/05/26 03:27:10;;;;;;;1.70;1.10;;;10.90;79.10;;;;;;5033742;28;20469;-89
2021/05/26 03:29:36;;;;;;;1.52;1.20;;;10.90;79.10;;;;;;5032538;28;20064;-88
2021/05/26 03:32:02;;;;;;;1.00;0.90;;;10.90;79.10;;;;;;5031931;28;20029;-87
2021/05/26 03:34:27;;;;;;;1.20;1.10;;;10.90;79.10;;;;;;5032197;28;20071;-87
2021/05/26 03:36:53;;;;;;;1.40;1.30;;;10.90;79.00;;;;;;5032302;28;20478;-88
2021/05/26 03:39:18;;;;;;;2.08;1.23;;;10.90;79.10;;;;;;5032316;28;20141;-88
2021/05/26 03:41:44;;;;;;;3.85;2.70;;;10.90;79.00;;;;;;5031970;28;20037;-88
2021/05/26 03:44:09;;;;;;;3.70;2.22;;;10.90;79.00;;;;;;5032365;28;20033;-87
2021/05/26 03:46:36;;;;;;;4.20;2.58;;;10.90;79.10;;;;;;5032762;28;20035;-88
2021/05/26 03:49:03;;;;;;;5.25;3.30;;;10.90;79.10;;;;;;5031709;28;20501;-88
2021/05/26 03:51:28;;;;;;;3.22;2.53;;;10.90;79.00;;;;;;5032168;28;20090;-89
2021/05/26 03:53:54;;;;;;;4.72;3.80;;;11.00;79.10;;;;;;5032572;28;20591;-88
2021/05/26 03:56:20;;;;;;;6.78;4.32;;;11.00;79.20;;;;;;5031829;28;20037;-87
2021/05/26 03:58:46;;;;;;;3.65;3.05;;;11.00;79.30;;;;;;5031008;28;20479;-89
2021/05/26 04:01:12;;;;;;;4.68;3.50;;;11.00;79.30;;;;;;5032884;28;20032;-89
2021/05/26 04:03:37;;;;;;;4.97;3.58;;;11.00;79.30;;;;;;5032445;28;20036;-89
2021/05/26 04:06:03;;;;;;;5.93;3.33;;;11.00;79.30;;;;;;5033351;28;20109;-91
2021/05/26 04:08:28;;;;;;;6.68;3.92;;;11.10;79.30;;;;;;5033782;28;20107;-91
2021/05/26 04:10:54;;;;;;;4.22;3.15;;;11.10;79.30;;;;;;5032745;28;20055;-88
2021/05/26 04:13:19;;;;;;;8.15;5.50;;;11.10;79.30;;;;;;5032692;28;20029;-89
2021/05/26 04:15:45;;;;;;;10.10;6.60;;;11.10;79.30;;;;;;5032371;28;20033;-90
2021/05/26 04:18:10;;;;;;;8.00;4.80;;;11.10;79.60;;;;;;5014999;28;20028;-90
2021/05/26 04:20:36;;;;;;;7.85;4.57;;;11.10;79.80;;;;;;5015273;28;20018;-89
2021/05/26 04:23:02;;;;;;;7.75;5.05;;;11.10;79.80;;;;;;5033391;28;20045;-90
2021/05/26 04:25:27;;;;;;;15.55;8.57;;;11.00;80.10;;;;;;5032605;28;20029;-88
2021/05/26 04:27:53;;;;;;;8.70;5.80;;;11.00;80.50;;;;;;5030847;28;20042;-88
2021/05/26 04:30:20;;;;;;;8.77;5.10;;;11.00;80.60;;;;;;5030366;28;20033;-88
2021/05/26 04:32:45;;;;;;;9.48;5.90;;;11.00;80.50;;;;;;5033586;28;20017;-95
2021/05/26 04:35:12;;;;;;;8.90;5.00;;;11.10;80.60;;;;;;5033052;28;20047;-93
2021/05/26 04:37:37;;;;;;;7.15;4.50;;;11.10;80.50;;;;;;5015542;28;20659;-93
2021/05/26 04:40:04;;;;;;;8.57;4.82;;;11.10;80.40;;;;;;5015783;28;20025;-91
2021/05/26 04:42:30;;;;;;;8.23;4.88;;;11.10;80.40;;;;;;5014906;28;20034;-93
2021/05/26 04:44:55;;;;;;;9.32;4.18;;;11.20;80.40;;;;;;5030361;28;20044;-89
2021/05/26 04:47:21;;;;;;;6.88;4.38;;;11.20;80.40;;;;;;5031938;28;20506;-90
2021/05/26 04:49:46;;;;;;;7.57;4.50;;;11.20;80.50;;;;;;5031946;28;20476;-92
2021/05/26 04:52:12;;;;;;;4.95;3.70;;;11.20;80.40;;;;;;5033481;28;20061;-93
2021/05/26 04:54:38;;;;;;;8.95;4.15;;;11.30;80.40;;;;;;5033300;28;20575;-92
2021/05/26 04:57:04;;;;;;;7.47;4.45;;;11.20;80.30;;;;;;5032844;28;20025;-89
2021/05/26 04:59:29;;;;;;;8.05;4.55;;;11.20;80.30;;;;;;5031116;28;20465;-89
2021/05/26 05:01:55;;;;;;;9.90;5.13;;;11.20;80.40;;;;;;5025114;28;20026;-89
2021/05/26 05:04:20;;;;;;;6.15;4.47;;;11.20;80.50;;;;;;5025238;28;20060;-89
2021/05/26 05:06:46;;;;;;;8.07;3.65;;;11.20;80.50;;;;;;5028151;28;20021;-91
2021/05/26 05:09:12;;;;;;;5.32;3.38;;;11.20;80.50;;;;;;5031413;28;20415;-92
2021/05/26 05:11:38;;;;;;;7.10;3.40;;;11.20;80.40;;;;;;5032823;28;20049;-90
2021/05/26 05:14:04;;;;;;;8.93;4.28;;;11.20;80.30;;;;;;5018918;28;20565;-89
2021/05/26 05:16:32;;;;;;;8.43;3.55;;;11.20;80.50;;;;;;5028389;28;20037;-90
2021/05/26 05:18:57;;;;;;;5.40;3.00;;;11.20;80.50;;;;;;5030389;28;20013;-87
2021/05/26 05:21:23;;;;;;;5.53;2.90;;;11.20;80.40;;;;;;5031450;28;20388;-90
2021/05/26 05:23:49;;;;;;;7.85;3.60;;;11.20;80.40;;;;;;5026829;28;20452;-88
2021/05/26 05:26:15;;;;;;;6.13;3.53;;;11.20;80.30;;;;;;5027771;28;20038;-94
2021/05/26 05:28:40;;;;;;;6.72;3.33;;;11.20;80.30;;;;;;5028125;28;20076;-94
2021/05/26 05:31:06;;;;;;;5.18;3.25;;;11.20;80.20;;;;;;5022146;28;20017;-95
2021/05/26 05:33:31;;;;;;;5.30;3.33;;;11.30;80.20;;;;;;5031698;28;20034;-94
2021/05/26 05:35:57;;;;;;;7.90;4.32;;;11.30;80.10;;;;;;5031386;28;20037;-91
2021/05/26 05:38:22;;;;;;;5.47;2.50;;;11.40;80.00;;;;;;5028385;28;20029;-90
2021/05/26 05:40:51;;;;;;;4.85;2.70;;;11.50;79.80;;;;;;5017762;28;20117;-93
2021/05/26 05:43:17;;;;;;;5.82;3.03;;;11.50;79.60;;;;;;5032170;28;20488;-92
2021/05/26 05:45:43;;;;;;;7.38;3.35;;;11.50;79.50;;;;;;5023650;28;20063;-93
2021/05/26 05:48:09;;;;;;;9.93;5.07;;;11.50;79.40;;;;;;5031155;28;20037;-94
2021/05/26 05:50:35;;;;;;;8.27;4.22;;;11.50;79.50;;;;;;5020793;28;20025;-87
2021/05/26 05:53:01;;;;;;;7.57;4.00;;;11.40;79.50;;;;;;5022003;28;20030;-87
2021/05/26 05:55:26;;;;;;;8.88;3.92;;;11.40;79.70;;;;;;5021486;28;20037;-86
2021/05/26 05:57:53;;;;;;;6.93;4.18;;;11.40;79.80;;;;;;5029064;28;20029;-87
2021/05/26 06:00:20;;;;;;;5.53;3.50;;;11.40;80.00;;;;;;5026955;28;20388;-88
2021/05/26 06:02:46;;;;;;;5.80;3.30;;;11.40;80.00;;;;;;5010443;28;20033;-88
2021/05/26 06:05:15;;;;;;;4.57;2.92;;;11.40;80.00;;;;;;5029961;28;20028;-88
2021/05/26 06:07:41;;;;;;;5.03;3.13;;;11.40;79.80;;;;;;5029887;28;20025;-88
2021/05/26 06:10:09;;;;;;;8.10;3.67;;;11.40;79.80;;;;;;5030353;28;20120;-87
2021/05/26 06:12:34;;;;;;;8.07;4.15;;;11.40;79.90;;;;;;5012568;28;20506;-88
2021/05/26 06:15:00;;;;;;;6.75;3.85;;;11.40;79.90;;;;;;5030144;28;20120;-88
2021/05/26 06:17:25;;;;;;;6.32;3.35;;;11.40;79.90;;;;;;5029636;28;20108;-88
2021/05/26 06:19:51;;;;;;;7.18;3.97;;;11.40;80.00;;;;;;5030916;28;20029;-89
2021/05/26 06:22:17;;;;;;;6.28;3.75;;;11.40;80.00;;;;;;5029942;28;20068;-88
2021/05/26 06:24:42;;;;;;;4.57;3.10;;;11.40;80.00;;;;;;5030654;28;20026;-89
2021/05/26 06:27:08;;;;;;;9.13;4.50;;;11.40;79.90;;;;;;5029320;28;20040;-88
2021/05/26 06:29:34;;;;;;;7.75;4.35;;;11.40;80.00;;;;;;5030339;28;20039;-87
2021/05/26 06:31:59;;;;;;;7.75;4.50;;;11.30;80.00;;;;;;5030492;28;20029;-88
2021/05/26 06:34:25;;;;;;;9.00;4.43;;;11.30;80.00;;;;;;5030356;28;20018;-87
2021/05/26 06:36:50;;;;;;;5.93;3.80;;;11.30;80.10;;;;;;5029983;28;20702;-87
2021/05/26 06:39:16;;;;;;;6.68;3.80;;;11.30;80.20;;;;;;5030561;28;20025;-88
2021/05/26 06:41:43;;;;;;;7.97;4.45;;;11.40;80.10;;;;;;5029723;28;20048;-87
2021/05/26 06:44:09;;;;;;;6.10;3.72;;;11.40;80.10;;;;;;5012273;28;20563;-87
2021/05/26 06:46:34;;;;;;;7.05;3.72;;;11.40;80.10;;;;;;5032752;28;20053;-90
2021/05/26 06:49:00;;;;;;;6.50;3.97;;;11.40;80.00;;;;;;5030641;28;20028;-90
2021/05/26 06:51:28;;;;;;;6.10;3.55;;;11.50;80.00;;;;;;5015520;28;20491;-92
2021/05/26 06:53:55;;;;;;;9.73;5.75;;;11.60;79.90;;;;;;5035487;28;20075;-94
2021/05/26 06:56:21;;;;;;;7.97;5.15;;;11.60;79.80;;;;;;5020846;28;20269;-92
2021/05/26 06:58:46;;;;;;;8.25;5.00;;;11.60;79.70;;;;;;5035543;28;20021;-92
2021/05/26 07:01:12;;;;;;;7.78;4.40;;;11.60;79.60;;;;;;5035024;28;20088;-94
2021/05/26 07:03:38;;;;;;;6.13;3.67;;;11.70;79.50;;;;;;5039003;28;20596;-93
2021/05/26 07:06:03;;;;;;;6.85;4.05;;;11.80;79.40;;;;;;5043051;28;20384;-93
2021/05/26 07:08:31;;;;;;;4.85;3.05;;;12.00;79.20;;;;;;5046912;28;20006;-94
2021/05/26 07:10:56;;;;;;;5.85;3.38;;;12.10;78.80;;;;;;5023583;28;20121;-93
2021/05/26 07:13:22;;;;;;;7.57;4.22;;;12.20;78.60;;;;;;5034438;28;20028;-90
2021/05/26 07:15:48;;;;;;;6.15;3.53;;;12.30;78.40;;;;;;5032391;28;20037;-90
2021/05/26 07:18:13;;;;;;;4.57;2.60;;;12.40;78.20;;;;;;5036416;28;20014;-89
2021/05/26 07:20:44;;;;;;;9.82;6.20;;;12.50;78.00;;;;;;5031819;28;20060;-87
2021/05/26 07:23:10;;;;;;;8.40;5.93;;;12.60;77.70;;;;;;5015182;28;20036;-85
2021/05/26 07:25:37;;;;;;;10.05;5.00;;;12.60;77.50;;;;;;5033058;28;20029;-87
2021/05/26 07:28:03;;;;;;;6.80;4.53;;;12.60;77.50;;;;;;5028758;28;20079;-86
2021/05/26 07:30:29;;;;;;;5.43;4.15;;;12.70;77.40;;;;;;5030212;28;20033;-85
2021/05/26 07:32:55;;;;;;;8.32;4.97;;;12.80;77.10;;;;;;5032704;28;20025;-85
2021/05/26 07:35:21;;;;;;;6.30;3.95;;;12.80;76.90;;;;;;5032556;28;20041;-87
2021/05/26 07:37:47;;;;;;;4.72;3.90;;;12.90;76.80;;;;;;5025907;28;20647;-88
2021/05/26 07:40:16;;;;;;;6.40;4.00;;;13.00;76.70;;;;;;5030375;28;20185;-85
2021/05/26 07:42:42;;;;;;;5.30;3.60;;;13.10;76.40;;;;;;5031209;28;20032;-87
2021/05/26 07:45:08;;;;;;;5.00;3.58;;;13.10;76.30;;;;;;5015081;28;20421;-87
2021/05/26 07:47:35;;;;;;;6.13;4.32;;;13.20;76.20;;;;;;5030026;28;20678;-87
2021/05/26 07:50:01;;;;;;;5.97;4.30;;;13.20;75.80;;;;;;5033110;28;20022;-88
2021/05/26 07:52:28;;;;;;;8.80;5.32;;;13.30;75.80;;;;;;5032320;28;20531;-88
2021/05/26 07:54:54;;;;;;;4.75;3.72;;;13.40;75.70;;;;;;4995933;28;20036;-87
2021/05/26 07:57:20;;;;;;;7.60;4.50;;;13.60;75.30;;;;;;5024557;28;20101;-88
2021/05/26 07:59:46;;;;;;;7.25;4.57;;;13.70;74.90;;;;;;5025053;28;20033;-87
2021/05/26 08:02:12;;;;;;;6.65;5.30;;;13.70;74.80;;;;;;5030650;28;20127;-88
2021/05/26 08:04:39;;;;;;;7.03;5.13;;;13.90;74.50;;;;;;5031604;28;20021;-88
2021/05/26 08:07:05;;;;;;;7.78;4.80;;;14.10;74.90;;;;;;5032460;28;20033;-87
2021/05/26 08:09:30;;;;;;;7.00;4.50;;;14.10;73.80;;;;;;5020794;28;20030;-88
2021/05/26 08:11:56;;;;;;;8.05;5.00;;;14.10;73.80;;;;;;5022476;28;20029;-88
2021/05/26 08:14:22;;;;;;;6.82;4.80;;;14.00;73.50;;;;;;5027983;28;20033;-89
2021/05/26 08:16:50;;;;;;;5.28;3.88;;;14.00;73.50;;;;;;5002496;28;20033;-88
2021/05/26 08:19:16;;;;;;;8.07;5.65;;;14.10;73.50;;;;;;5022790;28;20028;-89
2021/05/26 08:21:41;;;;;;;7.43;3.92;;;14.00;73.20;;;;;;5030241;28;20041;-87
2021/05/26 08:24:07;;;;;;;5.47;3.97;;;14.10;73.50;;;;;;5022339;28;20018;-88
2021/05/26 08:26:35;;;;;;;5.80;4.28;;;14.10;73.50;;;;;;5028483;28;20052;-90
2021/05/26 08:29:01;;;;;;;5.07;4.05;;;14.10;73.60;;;;;;5031527;28;20029;-88
2021/05/26 08:31:26;;;;;;;12.05;7.15;;;14.20;73.70;;;;;;5014203;28;20048;-87
2021/05/26 08:33:52;;;;;;;6.82;5.10;;;14.00;72.70;;;;;;5027818;28;20662;-88
2021/05/26 08:36:17;;;;;;;6.55;5.30;;;13.90;72.80;;;;;;5024088;28;20041;-87
2021/05/26 08:38:43;;;;;;;4.90;3.97;;;13.90;73.20;;;;;;5023394;28;20622;-88
2021/05/26 08:41:11;;;;;;;8.00;5.20;;;14.00;73.20;;;;;;5025235;28;20046;-87
2021/05/26 08:43:39;;;;;;;7.15;4.60;;;14.10;73.40;;;;;;5012328;28;20100;-87
2021/05/26 08:46:05;;;;;;;7.22;5.25;;;14.20;72.60;;;;;;5024658;28;20468;-88
2021/05/26 08:48:32;;;;;;;10.50;6.20;;;14.30;72.50;;;;;;5020583;28;20037;-89
2021/05/26 08:51:00;;;;;;;6.95;4.93;;;14.40;72.20;;;;;;5024790;28;20106;-88
2021/05/26 08:53:26;;;;;;;7.43;5.25;;;14.50;71.90;;;;;;5020493;28;20035;-87
2021/05/26 08:55:52;;;;;;;9.10;6.55;;;14.60;71.50;;;;;;5019290;28;20061;-87
2021/05/26 08:58:18;;;;;;;6.88;5.20;;;14.60;70.80;;;;;;5022884;28;20053;-87
2021/05/26 09:00:44;;;;;;;9.75;6.30;;;14.60;70.90;;;;;;5018223;28;20408;-88
2021/05/26 09:03:10;;;;;;;6.30;5.40;;;14.60;71.00;;;;;;5000282;28;20025;-91
2021/05/26 09:05:36;;;;;;;8.32;5.40;;;14.70;70.60;;;;;;5026310;28;20592;-89
2021/05/26 09:08:21;;;;;;;8.60;6.00;;;14.80;70.50;;;;;;5022675;28;20040;-89
2021/05/26 09:10:57;;;;;;;6.20;5.25;;;15.00;69.90;;;;;;5022376;28;20030;-90
2021/05/26 09:13:27;;;;;;;6.88;4.60;;;15.00;69.50;;;;;;5021853;28;20452;-90
2021/05/26 09:15:53;;;;;;;7.30;4.72;;;15.00;69.30;;;;;;5003719;28;20030;-90
2021/05/26 09:18:19;;;;;;;6.13;5.03;;;15.10;69.50;;;;;;5015642;28;20036;-88
2021/05/26 09:20:46;;;;;;;8.10;6.13;;;15.30;69.50;;;;;;5019666;28;20024;-89
2021/05/26 09:23:17;;;;;;;8.20;5.63;;;15.30;68.00;;;;;;5023217;28;20021;-88
2021/05/26 09:25:47;;;;;;;8.98;5.55;;;15.30;67.90;;;;;;5028499;28;20140;-88
2021/05/26 09:28:31;;;;;;;10.27;8.05;;;15.40;67.60;;;;;;5027062;28;20049;-89
2021/05/26 09:31:07;;;;;;;7.40;5.30;;;15.40;66.00;;;;;;5029244;28;20476;-88
2021/05/26 09:33:43;;;;;;;5.80;4.53;;;15.40;66.30;;;;;;5016496;28;20033;-88
2021/05/26 09:36:20;;;;;;;8.23;5.90;;;15.40;66.00;;;;;;5020448;28;20076;-95
2021/05/26 09:38:51;;;;;;;5.82;4.15;;;15.30;65.90;;;;;;5028645;28;20136;-89
2021/05/26 09:41:24;;;;;;;7.30;4.80;;;15.30;66.40;;;;;;5004172;28;20087;-90
2021/05/26 09:43:53;;;;;;;8.73;5.22;;;15.30;66.40;;;;;;5026984;28;20056;-89
2021/05/26 09:46:24;;;;;;;5.80;4.38;;;15.10;66.30;;;;;;5011596;28;20117;-87
2021/05/26 09:49:21;;;;;;;5.63;4.85;;;15.20;67.10;;;;;;5027587;28;20045;-95
2021/05/26 09:51:51;;;;;;;7.32;5.13;;;15.50;66.70;;;;;;5001291;28;20041;-86
2021/05/26 09:54:22;;;;;;;5.68;4.50;;;15.70;65.90;;;;;;5019019;28;20114;-88
2021/05/26 09:57:04;;;;;;;5.68;4.22;;;16.00;65.20;;;;;;5020660;28;20025;-88
2021/05/26 09:59:31;;;;;;;6.47;4.30;;;15.90;64.10;;;;;;5022853;28;20026;-87
2021/05/26 10:01:58;;;;;;;7.40;4.35;;;16.00;64.20;;;;;;5019846;28;20033;-86
2021/05/26 10:04:25;;;;;;;5.38;3.90;;;16.20;63.80;;;;;;5026741;28;20059;-88
2021/05/26 10:06:55;;;;;;;4.75;3.70;;;16.20;63.20;;;;;;5023976;28;20032;-89
2021/05/26 10:09:23;;;;;;;4.75;3.95;;;16.10;62.80;;;;;;5028019;28;20464;-88
2021/05/26 10:11:53;;;;;;;5.85;3.40;;;16.20;62.70;;;;;;5022182;28;20041;-88
2021/05/26 10:14:22;;;;;;;4.80;3.40;;;16.50;62.60;;;;;;5024212;28;20376;-88
2021/05/26 10:16:52;;;;;;;7.43;3.88;;;16.50;62.10;;;;;;5014756;28;20549;-88
2021/05/26 10:19:18;;;;;;;2.90;2.13;;;16.50;61.80;;;;;;5018336;28;20042;-89
2021/05/26 10:21:46;;;;;;;2.50;1.42;;;16.30;61.20;;;;;;5028328;28;20107;-90
2021/05/26 10:24:17;;;;;;;1.90;0.95;;;15.90;61.50;;;;;;5019650;28;20076;-89
2021/05/26 10:27:01;;;;;;;0.80;0.80;;;15.50;61.10;;;;;;5027958;28;20021;-89
2021/05/26 10:29:29;;;;;;;1.25;1.02;;;15.10;61.50;;;;;;5025528;28;20120;-89
2021/05/26 10:32:00;;;;;;;2.53;0.90;;;14.70;62.60;;;;;;5018459;28;20025;-89
2021/05/26 10:34:47;;;;;;;1.17;0.90;;;14.40;63.80;;;;;;5033004;28;20029;-88
2021/05/26 10:37:32;;;;;;;1.58;1.00;;;14.00;65.10;;;;;;5020971;28;20651;-86
2021/05/26 10:39:57;;;;;;;1.75;0.95;;;13.60;66.40;;;;;;5014252;28;20021;-89
2021/05/26 10:42:27;;;;;;;2.63;1.40;;;13.40;67.50;;;;;;5033716;28;20029;-87
2021/05/26 10:44:57;;;;;;;1.77;1.00;;;13.10;68.50;;;;;;5030813;28;20033;-87
2021/05/26 10:47:38;;;;;;;1.35;1.08;;;12.90;69.20;;;;;;5027234;28;20060;-87
2021/05/26 10:50:06;;;;;;;2.47;1.00;;;12.80;69.70;;;;;;5032493;28;20021;-87
2021/05/26 10:52:56;;;;;;;1.48;0.80;;;12.60;70.10;;;;;;5015924;28;20392;-88
2021/05/26 10:55:40;;;;;;;1.98;0.90;;;12.50;70.50;;;;;;5022238;28;20049;-90
2021/05/26 10:58:20;;;;;;;1.08;0.80;;;12.40;70.70;;;;;;4996971;28;20426;-88
2021/05/26 11:00:49;;;;;;;1.52;0.90;;;12.40;70.90;;;;;;5029324;28;20022;-89
2021/05/26 11:05:52;;;;;;;3.38;1.50;;;12.30;71.90;;;;;;5033157;28;20106;-89
2021/05/26 11:08:46;;;;;;;3.05;1.27;;;12.20;72.50;;;;;;5033733;28;20029;-91
2021/05/26 11:13:59;;;;;;;1.20;1.10;;;12.30;73.10;;;;;;5030729;28;20065;-89
2021/05/26 11:16:35;;;;;;;1.02;0.90;;;12.30;72.90;;;;;;5005330;28;20136;-88
2021/05/26 11:19:09;;;;;;;1.70;1.00;;;12.50;73.00;;;;;;5024888;28;20093;-87
2021/05/26 11:22:03;;;;;;;2.03;0.90;;;12.70;72.90;;;;;;5025582;28;20564;-87
2021/05/26 11:24:32;;;;;;;1.55;0.98;;;12.90;72.50;;;;;;5022416;28;20018;-90
2021/05/26 11:26:58;;;;;;;1.10;0.90;;;13.10;72.30;;;;;;5006848;28;20504;-91
2021/05/26 11:29:39;;;;;;;0.82;0.80;;;13.30;72.10;;;;;;5031858;28;20080;-90
2021/05/26 11:32:05;;;;;;;3.38;1.02;;;13.50;71.90;;;;;;5008605;28;20025;-91
2021/05/26 11:34:31;;;;;;;2.30;1.10;;;13.60;71.70;;;;;;5028965;28;20049;-89
2021/05/26 11:36:57;;;;;;;1.42;1.30;;;13.60;71.60;;;;;;5024176;28;20111;-89
2021/05/26 11:39:29;;;;;;;1.88;1.10;;;13.60;71.50;;;;;;5018317;28;20084;-88
2021/05/26 11:42:07;;;;;;;;;;;13.70;71.50;;;;;;5006073;28;20030;-88
2021/05/26 11:44:41;;;;;;;2.05;1.00;;;13.80;71.40;;;;;;5025424;28;19920;-86
2021/05/26 11:47:07;;;;;;;1.02;0.93;;;13.70;71.50;;;;;;5023255;28;20473;-89
2021/05/26 11:49:36;;;;;;;2.33;1.10;;;13.70;71.60;;;;;;5026486;28;20028;-91
2021/05/26 11:52:09;;;;;;;1.20;1.10;;;13.80;71.70;;;;;;5018737;28;20112;-89
2021/05/26 11:54:55;;;;;;;2.55;1.25;;;13.90;71.90;;;;;;5011437;28;20029;-89
2021/05/26 11:57:21;;;;;;;2.47;1.20;;;14.00;71.80;;;;;;5018053;28;20085;-88
2021/05/26 11:59:53;;;;;;;2.38;1.10;;;14.20;72.00;;;;;;5009269;28;20029;-87
2021/05/26 12:02:18;;;;;;;1.17;0.93;;;14.40;71.80;;;;;;5028069;28;20029;-87
2021/05/26 12:04:44;;;;;;;3.80;2.03;;;14.50;71.70;;;;;;5017606;28;20159;-88
2021/05/26 12:07:10;;;;;;;3.00;1.58;;;14.50;71.90;;;;;;5009096;28;20029;-87
2021/05/26 12:09:36;;;;;;;2.47;1.35;;;14.60;72.00;;;;;;5019494;28;20045;-86
2021/05/26 12:12:16;;;;;;;1.73;1.50;;;14.70;72.00;;;;;;5025684;28;20106;-87
2021/05/26 12:14:43;;;;;;;2.50;1.20;;;15.10;72.10;;;;;;5027236;28;20034;-90
2021/05/26 12:17:10;;;;;;;2.70;1.48;;;15.30;71.50;;;;;;5023252;28;20045;-90
2021/05/26 12:19:35;;;;;;;3.13;1.70;;;15.40;70.80;;;;;;5009808;28;20029;-88
2021/05/26 12:22:19;;;;;;;1.30;1.20;;;15.50;70.60;;;;;;5020363;28;20241;-91
2021/05/26 12:24:58;;;;;;;1.83;1.40;;;15.80;70.20;;;;;;5022404;28;20025;-90
2021/05/26 12:27:37;;;;;;;4.13;1.70;;;16.00;68.30;;;;;;5021380;28;20029;-88
2021/05/26 12:30:24;;;;;;;2.50;1.30;;;16.20;67.30;;;;;;5022928;28;20397;-92
2021/05/26 12:33:13;;;;;;;1.10;1.00;;;16.20;67.00;;;;;;5029256;28;20044;-91
2021/05/26 12:35:41;;;;;;;1.67;1.20;;;16.20;67.00;;;;;;5029994;28;20393;-93
2021/05/26 12:38:21;;;;;;;1.83;1.30;;;16.20;67.20;;;;;;5008790;28;20097;-94
2021/05/26 12:40:48;;;;;;;1.98;1.30;;;16.30;67.20;;;;;;5022354;28;20048;-94
2021/05/26 12:43:28;;;;;;;2.72;1.48;;;16.40;66.80;;;;;;5008285;28;20424;-92
2021/05/26 12:45:54;;;;;;;3.03;1.10;;;16.40;66.00;;;;;;5014890;28;20603;-94
2021/05/26 12:48:42;;;;;;;2.28;1.23;;;16.40;65.90;;;;;;5026578;28;20400;-93
2021/05/26 12:51:19;;;;;;;2.65;1.10;;;16.50;65.80;;;;;;5020356;28;20017;-91
2021/05/26 12:53:45;;;;;;;1.83;1.30;;;16.60;65.40;;;;;;5006014;28;20029;-90
2021/05/26 12:56:22;;;;;;;0.90;0.75;;;16.70;65.10;;;;;;5026668;28;20400;-91
2021/05/26 12:58:54;;;;;;;3.35;1.10;;;16.90;64.90;;;;;;5024002;28;20469;-90
2021/05/26 13:01:19;;;;;;;1.20;0.80;;;17.00;64.10;;;;;;5031196;28;20021;-91